• Join FlightAware (Why Join?)
  • Login
  • US Flag 
05:11AM EST


 

Airport Tracker/Info


-or-


 

Live Flight TrackerFlight Track Log ✈ BVN8754 ✈ 10-May-2014 ✈ KAUS - KBWD

Flight Track Log - Related Links

Times and Time Zones

All times are in EDT time to prevent confusion due to time zone crossing. See the BVN8754 flight status page for this flight to view local times or setup timezone preferences in your user account.

Time Position Orientation Groundspeed Altitude Reporting Facility
EDT Latitude Longitude Course Direction KTS MPH feet Rate Location/Type
08:32AM 30.2156 -97.7731 327° Northwest 146 168 3,700  Level Fort Worth Center
08:33AM 30.2506 -97.7969 329° Northwest 145 167 4,800 984 Climbing Houston Center
08:34AM 30.2803 -97.8208 325° Northwest 137 158 5,700 634 Climbing Houston Center
08:35AM 30.3136 -97.8439 329° Northwest 137 158 6,100 146 Climbing Houston Center
08:36AM 30.3931 -97.8287 330° Northwest  Level FlightAware Approximate
08:36AM 30.3539 -97.8739 327° Northwest 160 184 6,000  Level Houston Center
08:37AM 30.4287 -97.8548 327° Northwest  Level FlightAware Approximate
08:37AM 30.3958 -97.9044 328° Northwest 171 197 6,000  Level Houston Center
08:38AM 30.4450 -97.9411 327° Northwest 173 199 6,000  Level Houston Center
08:39AM 30.4853 -97.9717 327° Northwest 173 199 6,000  Level Houston Center
08:40AM 30.5261 -98.0019 327° Northwest 174 200 6,000  Level Houston Center
08:41AM 30.5669 -98.0325 327° Northwest 174 200 6,000  Level Houston Center
08:42AM 30.6086 -98.0633 328° Northwest 174 200 6,000  Level Houston Center
08:43AM 30.6494 -98.0947 327° Northwest 174 200 6,000  Level Houston Center
08:44AM 30.6906 -98.1264 326° Northwest 174 200 6,000  Level Houston Center
08:45AM 30.7322 -98.1556 329° Northwest 174 200 6,000  Level Houston Center
08:46AM 30.7728 -98.1861 327° Northwest 174 200 6,000  Level Houston Center
08:47AM 30.8133 -98.2164 327° Northwest 174 200 6,000  Level Houston Center
08:48AM 30.8619 -98.2536 327° Northwest 174 200 6,000  Level Houston Center
08:49AM 30.9019 -98.2833 327° Northwest 174 200 6,000  Level Houston Center
08:50AM 30.9347 -98.3083 327° Northwest 174 200 6,000  Level Fort Worth Center
08:51AM 30.9833 -98.3450 327° Northwest 174 200 6,000  Level Fort Worth Center
08:52AM 31.0244 -98.3767 327° Northwest 174 200 6,000  Level Fort Worth Center
08:53AM 31.0653 -98.4061 328° Northwest 174 200 6,000  Level Fort Worth Center
08:54AM 31.1056 -98.4358 328° Northwest 174 200 6,000  Level Houston Center
08:55AM 31.1478 -98.4681 327° Northwest 175 201 6,000  Level Fort Worth Center
08:56AM 31.1883 -98.4992 327° Northwest 175 201 6,000  Level Fort Worth Center
08:57AM 31.2303 -98.5300 328° Northwest 175 201 6,000  Level Fort Worth Center
08:58AM 31.2694 -98.5614 326° Northwest 175 201 6,000  Level Fort Worth Center
08:59AM 31.3106 -98.5925 327° Northwest 175 201 6,000  Level Fort Worth Center
09:00AM 31.3608 -98.6308 327° Northwest 178 205 6,000  Level Fort Worth Center
09:01AM 31.4039 -98.6611 329° Northwest 178 205 6,000  Level Fort Worth Center
09:02AM 31.4453 -98.6928 327° Northwest 178 205 6,000  Level Fort Worth Center